Flight Track Log - Related Links

Times and Time Zones

All times are in EST time to prevent confusion due to time zone crossing. See the N77VZ flight status page for this flight to view local times or setup timezone preferences in your user account.


Time Position Orientation Groundspeed Altitude Reporting Facility
EST Latitude Longitude Course Direction KTS MPH feet Rate Location/Type
Fri 02:04:23 PM 29.6353 -95.2867 155° Southeast 163 188 600  Level Houston Center
Fri 02:05:49 PM 29.5800 -95.2575 155° Southeast 203 234 5,000 2,813 Climbing Houston Center
Fri 02:05:59 PM 29.5806 -95.2542 79° East 204 235 5,100 2,509 Climbing Houston Center
Fri 02:06:44 PM 29.5758 -95.1906 95° East 257 296 7,300 2,710 Climbing Houston Center
Fri 02:07:01 PM 29.5792 -95.1669 81° East 241 277 7,900 2,301 Climbing Houston Center
Fri 02:07:57 PM 29.5875 -95.0906 83° East 257 296 10,100 2,129 Climbing Houston Center
Fri 02:08:03 PM 29.5892 -95.0892 36° Northeast 255 293 10,100 1,765 Level Houston Center
Fri 02:09:05 PM 29.5978 -95.0061 83° East 263 303 12,100 1,887 Climbing Houston Center
Fri 02:10:07 PM 29.6061 -94.9175 84° East 278 320 14,000 2,016 Climbing Houston Center
Fri 02:11:10 PM 29.6181 -94.8053 83° East 293 337 16,300 2,064 Climbing Houston Center
Fri 02:12:12 PM 29.6261 -94.7086 85° East 300 345 18,300 1,645 Climbing Houston Center
Fri 02:13:14 PM 29.6356 -94.6058 84° East 320 368 19,700 1,500 Climbing Houston Center
Fri 02:14:16 PM 29.6461 -94.4961 84° East 341 392 21,400 1,597 Climbing Houston Center
Fri 02:15:18 PM 29.6567 -94.3839 84° East 352 405 23,000 1,548 Climbing Houston Center
Fri 02:16:20 PM 29.6667 -94.2683 84° East 362 417 24,600 1,632 Climbing Houston Center
Fri 02:17:23 PM 29.6867 -94.1381 80° East 365 420 26,400 1,152 Climbing Houston Center
Fri 02:18:25 PM 29.7025 -94.0200 81° East 373 429 27,000 290 Climbing Houston Center
Fri 02:19:27 PM 29.7228 -93.8900 80° East 409 471 27,000  Level Houston Center
Fri 02:20:29 PM 29.7461 -93.7256 81° East 434 499 27,000  Level Houston Center
Fri 02:21:31 PM 29.7661 -93.5858 81° East 444 511 27,000  Level Houston Center
Fri 02:22:33 PM 29.7864 -93.4492 80° East 440 506 27,000  Level Houston Center
Fri 02:23:35 PM 29.8047 -93.3119 81° East 438 504 27,000  Level Houston Center
Fri 02:24:38 PM 29.8247 -93.1761 80° East 435 501 27,000  Level Houston Center
Fri 02:25:40 PM 29.8464 -93.0117 81° East 435 501 27,000  Level Houston Center
Fri 02:26:42 PM 29.8667 -92.8758 80° East 433 498 27,000  Level Houston Center
Fri 02:27:44 PM 29.8853 -92.7397 81° East 434 499 27,000  Level Houston Center
Fri 02:28:46 PM 29.9036 -92.6033 81° East 432 497 27,000  Level Houston Center
Fri 02:29:48 PM 29.9217 -92.4672 81° East 432 497 27,000 -96 Level Houston Center
Fri 02:30:51 PM 29.9436 -92.3033 81° East 433 498 26,800 -576 Descending Houston Center
Fri 02:31:53 PM 29.9617 -92.1667 81° East 433 498 25,800 -1,065 Descending Houston Center
Fri 02:32:55 PM 29.9803 -92.0281 81° East 438 504 24,600 -1,306 Descending Houston Center
Fri 02:33:57 PM 29.9972 -91.8944 82° East 426 490 23,100 -1,452 Descending Houston Center
Fri 02:34:59 PM 30.0142 -91.7683 81° East 404 465 21,600 -1,548 Descending Houston Center
Fri 02:36:01 PM 30.0342 -91.6175 81° East 401 461 19,900 -1,536 Descending Houston Center
Fri 02:37:04 PM 30.0494 -91.4911 82° East 400 460 18,400 -1,440 Descending Houston Center
Fri 02:38:06 PM 30.0650 -91.3658 82° East 396 456 16,900 -1,500 Descending Houston Center
Fri 02:39:08 PM 30.0811 -91.2450 81° East 385 443 15,300 -1,587 Descending Houston Center
Fri 02:40:07 PM 30.0956 -91.1214 82° East 337 388 13,700 -1,452 Descending Houston Center
Fri 02:40:10 PM 30.0942 -91.1342 263° West 355 409 13,800 -646 Climbing Houston Center
Fri 02:41:12 PM 30.1103 -91.0086 82° East 332 382 13,000 -511 Descending Houston Center
Fri 02:41:44 PM 30.1167 -90.9500 83° East 331 381 13,000  Level Houston Center
Fri 02:42:14 PM 30.1169 -90.9036 90° East 330 380 13,000 -455 Level Houston Center
Fri 02:42:50 PM 30.1117 -90.8372 95° East 337 388 12,500 -857 Descending Houston Center
Fri 02:43:17 PM 30.1147 -90.7989 85° East 328 377 12,100 -984 Descending Houston Center
Fri 02:43:51 PM 30.1172 -90.7361 87° East 318 366 11,500 -968 Descending Houston Center
Fri 02:44:19 PM 30.1194 -90.6975 86° East 319 367 11,100 -1,135 Descending Houston Center
Fri 02:44:28 PM 30.1178 -90.6736 95° East 313 360 10,800 -1,452 Descending Houston Center
Fri 02:45:21 PM 30.1125 -90.5972 95° East 316 364 9,600 -1,500 Descending Houston Center
Fri 02:45:40 PM 30.1058 -90.5492 99° East 317 365 9,000 -1,742 Descending Houston Center
Fri 02:46:23 PM 30.1003 -90.4800 95° East 311 358 7,800 -1,527 Descending Houston Center
Fri 02:46:35 PM 30.0992 -90.4606 94° East 304 350 7,600 -1,377 Descending Houston Center
Fri 02:47:24 PM 30.0950 -90.3886 94° East 292 336 6,400 -1,560 Descending Houston Center
Fri 02:47:25 PM 30.0953 -90.3864 82° East 303 349 6,300 -1,524 Descending Houston Center
Fri 02:48:27 PM 30.1283 -90.2997 66° East 300 345 4,800 -1,477 Descending Houston Center
Fri 02:48:30 PM 30.1317 -90.2886 71° East 287 330 4,700 -1,429 Descending Houston Center
Fri 02:49:30 PM 30.1575 -90.2197 67° East 285 328 3,300 -1,315 Descending Houston Center
Fri 02:49:43 PM 30.1644 -90.1983 69° East 253 291 3,100 -774 Descending Houston Center
Fri 02:50:32 PM 30.1853 -90.1492 64° Northeast 263 303 2,500 -873 Descending Houston Center
Fri 02:50:38 PM 30.1897 -90.1347 70° East 231 266 2,300 -484 Descending Houston Center
Fri 02:51:34 PM 30.1856 -90.0933 97° East 211 243 2,000 -295 Descending Houston Center
Fri 02:51:39 PM 30.1797 -90.0844 127° Southeast 148 170 2,000  Level Houston Center
Fri 02:52:36 PM 30.1544 -90.0483 129° Southeast 167 192 2,000  Level Houston Center
Fri 02:52:46 PM 30.1431 -90.0428 157° South 163 188 2,000 -1,161 Level Houston Center
Fri 02:53:38 PM 30.1142 -90.0303 159° South 165 190 800 -1,222 Descending Houston Center
Fri 02:53:40 PM 30.1114 -90.0322 211° Southwest 146 168 900 -387 Climbing Houston Center
Fri 02:54:40 PM 30.0736 -90.0308 178° South 152 175 400 -492 Descending Houston Center
Fri 02:54:41 PM 30.0714 -90.0314 192° South 141 162 400 -290 Level Houston Center
Fri 02:55:42 PM 30.0383 -90.0294 177° South 148 170 100 -295 Descending Houston Center
Fri 02:57:00 PM 30.0424 -90.0283 146° Southeast  Level Estimated

Login

Don't have an account? Register now (free) for customized features, flight alerts, and more!